Time;durP1;ratioP1;P1;durP2;ratioP2;P2;SDS_P1;SDS_P2;PMS_P1;PMS_P2;Temp;Humidity;BMP_temperature;BMP_pressure;BME280_temperature;BME280_humidity;BME280_pressure;Samples;Min_cycle;Max_cycle;Signal;HPM_P1;HPM_P2
2023/02/08 00:01:48;;;;;;;0.00;0.00;;;;;;;7.18;66.13;102896.38;7351406;19;20023;-62
2023/02/08 00:04:13;;;;;;;0.10;0.10;;;;;;;7.23;66.13;102899.97;7356973;19;20011;-61
2023/02/08 00:06:39;;;;;;;0.00;0.00;;;;;;;7.15;65.82;102888.53;7355691;19;20031;-62
2023/02/08 00:09:05;;;;;;;0.00;0.00;;;;;;;7.28;66.25;102903.56;7352788;19;20017;-62
2023/02/08 00:11:31;;;;;;;0.00;0.00;;;;;;;7.19;65.86;102877.34;7345094;19;20034;-62
2023/02/08 00:13:56;;;;;;;0.00;0.00;;;;;;;7.31;66.25;102888.06;7356265;19;20882;-62
2023/02/08 00:16:22;;;;;;;0.00;0.00;;;;;;;7.34;66.26;102892.47;7348086;19;20047;-62
2023/02/08 00:18:48;;;;;;;0.00;0.00;;;;;;;7.32;66.45;102874.25;7356085;19;20010;-62
2023/02/08 00:21:15;;;;;;;0.00;0.00;;;;;;;7.39;66.49;102883.94;7352868;19;20416;-62
2023/02/08 00:23:41;;;;;;;0.00;0.00;;;;;;;7.39;66.30;102873.53;7355234;19;20078;-61
2023/02/08 00:26:07;;;;;;;0.00;0.00;;;;;;;7.32;66.46;102858.66;7351568;19;22324;-62
2023/02/08 00:28:33;;;;;;;0.00;0.00;;;;;;;7.34;66.54;102856.94;7356263;19;20937;-62
2023/02/08 00:30:58;;;;;;;0.00;0.00;;;;;;;7.43;66.19;102867.59;7361769;19;20010;-61
2023/02/08 00:33:24;;;;;;;0.00;0.00;;;;;;;7.47;66.34;102866.81;7363158;19;20370;-62
2023/02/08 00:35:49;;;;;;;0.00;0.00;;;;;;;7.41;66.16;102852.81;7359625;19;20036;-61
2023/02/08 00:38:15;;;;;;;0.00;0.00;;;;;;;7.50;66.15;102856.50;7362721;19;20016;-62
2023/02/08 00:40:40;;;;;;;0.05;0.05;;;;;;;7.45;66.44;102850.31;7361436;19;20007;-62
2023/02/08 00:43:06;;;;;;;0.10;0.10;;;;;;;7.59;66.46;102857.56;7358477;19;20010;-62
2023/02/08 00:45:32;;;;;;;0.00;0.00;;;;;;;7.43;66.17;102826.00;7360173;19;20358;-62
2023/02/08 00:47:58;;;;;;;0.00;0.00;;;;;;;7.56;66.22;102834.97;7359878;19;20010;-62
2023/02/08 00:50:24;;;;;;;0.08;0.08;;;;;;;7.57;66.25;102833.25;7360890;19;20347;-62
2023/02/08 00:52:49;;;;;;;0.10;0.10;;;;;;;7.54;66.32;102810.66;7356577;19;20020;-61
2023/02/08 00:55:15;;;;;;;0.00;0.00;;;;;;;7.61;66.33;102825.56;7362126;19;21469;-62
2023/02/08 00:57:40;;;;;;;0.10;0.10;;;;;;;7.74;66.45;102837.13;7360858;19;20123;-62
2023/02/08 01:00:07;;;;;;;0.10;0.10;;;;;;;7.80;66.08;102829.44;7358900;19;20007;-62
2023/02/08 01:02:33;;;;;;;0.00;0.00;;;;;;;7.75;66.03;102821.53;7358093;19;20753;-62
2023/02/08 01:04:58;;;;;;;0.00;0.00;;;;;;;7.76;66.03;102810.31;7361828;19;20051;-60
2023/02/08 01:07:24;;;;;;;0.08;0.08;;;;;;;7.74;65.91;102791.19;7360537;19;20042;-60
2023/02/08 01:09:49;;;;;;;0.00;0.00;;;;;;;7.88;66.09;102809.72;7360741;19;20081;-62
2023/02/08 01:12:15;;;;;;;0.00;0.00;;;;;;;7.95;66.25;102814.19;7360451;19;20006;-62
2023/02/08 01:14:41;;;;;;;0.05;0.05;;;;;;;7.93;66.22;102796.81;7360035;19;20018;-61
2023/02/08 01:17:07;;;;;;;0.00;0.00;;;;;;;8.01;66.22;102796.13;7359824;19;20039;-62
2023/02/08 01:19:33;;;;;;;0.08;0.08;;;;;;;8.03;66.18;102784.03;7343548;19;20832;-62
2023/02/08 01:21:58;;;;;;;0.00;0.00;;;;;;;8.02;65.92;102777.06;7357959;19;20027;-62
2023/02/08 01:24:24;;;;;;;0.00;0.00;;;;;;;8.11;65.96;102791.09;7360212;19;20090;-62
2023/02/08 01:26:49;;;;;;;0.00;0.00;;;;;;;8.14;65.62;102783.38;7357424;19;20018;-62
2023/02/08 01:29:15;;;;;;;0.00;0.00;;;;;;;8.17;66.17;102775.63;7359183;19;20011;-61
2023/02/08 01:31:42;;;;;;;0.00;0.00;;;;;;;8.21;65.94;102777.44;7360864;19;20006;-62
2023/02/08 01:34:08;;;;;;;0.10;0.10;;;;;;;8.19;65.99;102763.53;7356801;19;20119;-62
2023/02/08 01:36:35;;;;;;;0.00;0.00;;;;;;;8.20;65.83;102760.94;7361179;19;20078;-62
2023/02/08 01:39:01;;;;;;;0.00;0.00;;;;;;;8.21;66.11;102754.00;7358604;19;20030;-62
2023/02/08 01:41:33;;;;;;;0.05;0.05;;;;;;;8.29;66.07;102752.44;7358732;19;20015;-63
2023/02/08 01:44:00;;;;;;;0.05;0.05;;;;;;;8.37;65.77;102760.44;7358010;19;20010;-61
2023/02/08 01:46:26;;;;;;;0.00;0.00;;;;;;;8.38;66.26;102757.88;7359225;19;20034;-62
2023/02/08 01:48:53;;;;;;;0.00;0.00;;;;;;;8.34;66.36;102743.00;7356386;19;20836;-62
2023/02/08 01:51:30;;;;;;;0.00;0.00;;;;;;;8.37;65.72;102742.22;7361864;19;20011;-62
2023/02/08 01:53:57;;;;;;;0.00;0.00;;;;;;;8.46;66.09;102758.88;7355481;19;20126;-61
2023/02/08 01:56:28;;;;;;;0.00;0.00;;;;;;;8.48;66.46;102746.78;7359582;19;20204;-61
2023/02/08 01:58:57;;;;;;;0.10;0.10;;;;;;;8.27;66.18;102708.19;7355897;19;20025;-61
2023/02/08 02:01:26;;;;;;;0.00;0.00;;;;;;;8.43;66.07;102719.78;7360254;19;20010;-62
2023/02/08 02:03:51;;;;;;;0.00;0.00;;;;;;;8.32;66.27;102698.72;7357129;19;20014;-62
2023/02/08 02:06:22;;;;;;;0.00;0.00;;;;;;;8.52;66.35;102727.78;7359127;19;21409;-62
2023/02/08 02:09:09;;;;;;;0.00;0.00;;;;;;;8.49;66.26;102714.69;7358016;19;20020;-62
2023/02/08 02:11:34;;;;;;;0.00;0.00;;;;;;;8.47;66.44;102708.59;7359635;19;20030;-61
2023/02/08 02:14:00;;;;;;;0.03;0.03;;;;;;;8.65;66.46;102727.97;7355665;19;20106;-61
2023/02/08 02:16:26;;;;;;;0.00;0.00;;;;;;;8.64;66.29;102711.47;7356067;19;20626;-61
2023/02/08 02:18:51;;;;;;;0.00;0.00;;;;;;;8.52;66.57;102690.44;7353877;19;20017;-61
2023/02/08 02:21:44;;;;;;;0.08;0.08;;;;;;;8.73;66.00;102715.97;7354508;19;20018;-61
2023/02/08 02:24:21;;;;;;;0.00;0.00;;;;;;;8.74;66.47;102710.78;7256950;19;2005035;-62
2023/02/08 02:26:49;;;;;;;0.00;0.00;;;;;;;8.75;66.29;102709.06;7356905;19;20570;-62
2023/02/08 02:29:30;;;;;;;0.05;0.05;;;;;;;8.76;66.66;102695.16;7354653;19;20052;-62
2023/02/08 02:32:19;;;;;;;0.10;0.10;;;;;;;8.81;66.09;102693.53;7357206;19;20598;-61
2023/02/08 02:35:03;;;;;;;0.00;0.00;;;;;;;8.78;66.60;102694.38;7359085;19;20035;-61
2023/02/08 02:37:40;;;;;;;0.10;0.10;;;;;;;8.81;66.48;102678.75;7356903;19;20027;-61
2023/02/08 02:40:24;;;;;;;0.10;0.10;;;;;;;8.81;66.83;102673.56;7356547;19;20043;-61
2023/02/08 02:46:16;;;;;;;0.00;0.00;;;;;;;8.83;65.99;102660.56;7254824;19;2004570;-62
2023/02/08 02:48:57;;;;;;;0.10;0.10;;;;;;;8.72;65.86;102636.97;7356524;19;20052;-62
2023/02/08 02:51:42;;;;;;;0.00;0.00;;;;;;;8.72;65.47;102647.38;7355507;19;20870;-62
2023/02/08 02:54:21;;;;;;;0.00;0.00;;;;;;;8.42;65.60;102587.00;7354708;19;21123;-62
2023/02/08 02:56:52;;;;;;;0.00;0.00;;;;;;;8.66;65.86;102630.75;7356544;19;20020;-61
2023/02/08 02:59:19;;;;;;;0.00;0.00;;;;;;;8.63;66.04;102638.53;7348082;19;20565;-62
2023/02/08 03:01:45;;;;;;;0.08;0.08;;;;;;;8.61;66.06;102650.63;7360344;19;20034;-62
2023/02/08 03:04:16;;;;;;;0.00;0.00;;;;;;;8.36;65.63;102605.97;7359175;19;20458;-62
2023/02/08 03:07:06;;;;;;;0.10;0.10;;;;;;;8.52;65.48;102639.22;7357875;19;20510;-62
2023/02/08 03:10:10;;;;;;;0.05;0.05;;;;;;;8.47;65.08;102646.09;7353152;19;20027;-61
2023/02/08 03:12:42;;;;;;;0.00;0.00;;;;;;;8.41;66.09;102635.53;7250137;19;2004423;-60
2023/02/08 03:15:17;;;;;;;0.00;0.00;;;;;;;8.34;65.54;102633.66;7358762;19;20953;-62
2023/02/08 03:17:58;;;;;;;0.10;0.10;;;;;;;8.31;65.68;102626.69;7357222;19;20022;-61
2023/02/08 03:20:39;;;;;;;0.10;0.10;;;;;;;8.06;65.58;102599.34;7356925;19;20022;-61
2023/02/08 03:23:49;;;;;;;0.00;0.00;;;;;;;8.19;65.21;102633.41;7358411;19;20070;-62
2023/02/08 03:26:14;;;;;;;0.00;0.00;;;;;;;8.12;65.15;102631.53;7258244;19;2004475;-62
2023/02/08 03:28:51;;;;;;;0.10;0.10;;;;;;;7.97;65.23;102612.19;7355644;19;20016;-61
2023/02/08 03:31:22;;;;;;;0.00;0.00;;;;;;;8.01;65.71;102627.03;7359112;19;20021;-62
2023/02/08 03:34:01;;;;;;;0.00;0.00;;;;;;;7.83;65.23;102603.25;7355081;19;20037;-61
2023/02/08 03:36:54;;;;;;;0.00;0.00;;;;;;;7.84;65.50;102599.78;7358067;19;20035;-61
2023/02/08 03:39:25;;;;;;;0.00;0.00;;;;;;;7.82;66.08;102601.50;7257501;19;2004492;-61
2023/02/08 03:41:55;;;;;;;0.00;0.00;;;;;;;7.74;66.45;102606.53;7355954;19;20022;-61
2023/02/08 03:44:26;;;;;;;0.00;0.00;;;;;;;7.80;65.48;102621.38;7355321;19;20762;-62
2023/02/08 03:46:57;;;;;;;0.10;0.10;;;;;;;7.76;66.59;102625.66;7356794;19;20493;-61
2023/02/08 03:49:30;;;;;;;0.00;0.00;;;;;;;7.72;66.72;102628.19;7357037;19;20009;-61
2023/02/08 03:51:59;;;;;;;0.00;0.00;;;;;;;7.68;66.68;102641.97;7355114;19;20029;-62
2023/02/08 03:54:29;;;;;;;0.00;0.00;;;;;;;7.66;66.22;102630.66;7359413;19;20029;-61
2023/02/08 03:57:11;;;;;;;0.00;0.00;;;;;;;7.47;65.68;102606.00;7355946;19;20413;-61
2023/02/08 03:59:41;;;;;;;0.00;0.00;;;;;;;7.39;66.98;102604.94;7348817;19;20077;-62
2023/02/08 04:02:11;;;;;;;0.00;0.00;;;;;;;7.53;66.79;102630.38;7356128;19;20037;-61
2023/02/08 04:04:41;;;;;;;0.03;0.03;;;;;;;7.37;66.09;102601.47;7340428;19;20113;-61
2023/02/08 04:07:07;;;;;;;0.00;0.00;;;;;;;7.08;66.80;102551.47;7359797;19;20022;-60
2023/02/08 04:09:32;;;;;;;0.10;0.10;;;;;;;7.31;67.24;102597.00;7362006;19;20023;-61
2023/02/08 04:11:58;;;;;;;0.10;0.10;;;;;;;7.41;66.66;102617.16;7365251;19;20403;-61
2023/02/08 04:14:23;;;;;;;0.08;0.08;;;;;;;7.29;67.24;102603.88;7358472;19;20014;-62
2023/02/08 04:16:50;;;;;;;0.10;0.10;;;;;;;7.26;67.02;102601.22;7361935;19;20035;-61
2023/02/08 04:19:15;;;;;;;0.00;0.00;;;;;;;7.27;67.48;102600.38;7357736;19;20010;-61
2023/02/08 04:21:41;;;;;;;0.10;0.10;;;;;;;7.17;66.95;102580.25;7349008;19;20671;-61
2023/02/08 04:24:06;;;;;;;0.10;0.10;;;;;;;7.12;67.26;102580.13;7363786;19;20006;-61
2023/02/08 04:26:32;;;;;;;0.10;0.10;;;;;;;7.30;66.30;102616.06;7362494;19;20094;-61
2023/02/08 04:28:57;;;;;;;0.10;0.10;;;;;;;7.08;67.31;102593.03;7360297;19;20017;-62
2023/02/08 04:31:22;;;;;;;0.10;0.10;;;;;;;7.13;67.26;102612.19;7363293;19;20011;-61
2023/02/08 04:33:48;;;;;;;0.00;0.00;;;;;;;7.03;67.74;102609.38;7363632;19;20007;-61
2023/02/08 04:36:13;;;;;;;0.10;0.10;;;;;;;7.16;68.07;102640.84;7365370;19;20434;-61
2023/02/08 04:38:39;;;;;;;0.00;0.00;;;;;;;7.27;67.08;102665.34;7361812;19;20017;-62
2023/02/08 04:41:04;;;;;;;0.00;0.00;;;;;;;7.29;67.92;102655.84;7363298;19;20022;-60
2023/02/08 04:43:30;;;;;;;0.00;0.00;;;;;;;7.35;68.25;102662.91;7359164;19;20013;-62
2023/02/08 04:45:55;;;;;;;0.00;0.00;;;;;;;7.33;67.66;102636.88;7360741;19;20011;-62
2023/02/08 04:48:20;;;;;;;0.00;0.00;;;;;;;7.37;68.50;102627.44;7362985;19;20821;-62
2023/02/08 04:50:46;;;;;;;0.10;0.10;;;;;;;7.37;68.31;102622.25;7361657;19;20006;-62
2023/02/08 04:53:12;;;;;;;0.10;0.10;;;;;;;7.58;67.96;102651.28;7360822;19;20021;-62
2023/02/08 04:55:37;;;;;;;0.10;0.10;;;;;;;7.63;67.90;102633.19;7364560;19;20086;-61
2023/02/08 04:58:03;;;;;;;0.00;0.00;;;;;;;7.69;67.98;102630.69;7360612;19;20027;-61
2023/02/08 05:00:28;;;;;;;0.00;0.00;;;;;;;7.70;67.71;102596.03;7364079;19;20019;-62
2023/02/08 05:02:54;;;;;;;0.10;0.10;;;;;;;7.72;67.69;102578.78;7361158;19;20014;-62
2023/02/08 05:05:20;;;;;;;0.10;0.10;;;;;;;7.89;68.13;102576.47;7364459;19;20003;-61
2023/02/08 05:07:45;;;;;;;0.10;0.10;;;;;;;7.93;68.36;102568.75;7361330;19;20034;-61
2023/02/08 05:10:11;;;;;;;0.10;0.10;;;;;;;7.83;68.07;102547.75;7364709;19;20053;-61
2023/02/08 05:12:36;;;;;;;0.00;0.00;;;;;;;7.95;67.72;102561.84;7354239;19;20014;-62
2023/02/08 05:15:02;;;;;;;0.00;0.00;;;;;;;8.02;67.98;102558.53;7362462;19;20010;-61
2023/02/08 05:17:27;;;;;;;0.03;0.03;;;;;;;8.05;67.57;102537.75;7351345;19;20006;-62
2023/02/08 05:19:53;;;;;;;0.10;0.10;;;;;;;8.12;67.25;102543.94;7361027;19;20494;-61
2023/02/08 05:22:18;;;;;;;0.00;0.00;;;;;;;8.02;67.33;102519.50;7362519;19;20342;-62
2023/02/08 05:24:44;;;;;;;0.00;0.00;;;;;;;8.12;67.45;102546.53;7364084;19;20087;-61
2023/02/08 05:27:09;;;;;;;0.00;0.00;;;;;;;8.19;67.06;102544.91;7358741;19;20026;-62
2023/02/08 05:29:34;;;;;;;0.10;0.10;;;;;;;8.06;66.89;102534.31;7338628;19;20003;-62
2023/02/08 05:32:00;;;;;;;0.10;0.10;;;;;;;8.17;67.03;102563.13;7356756;19;20010;-62
2023/02/08 05:34:25;;;;;;;0.10;0.10;;;;;;;8.13;66.42;102565.63;7361324;19;20006;-62
2023/02/08 05:36:50;;;;;;;0.00;0.00;;;;;;;8.13;66.29;102571.72;7361682;19;20035;-62
2023/02/08 05:39:16;;;;;;;0.03;0.03;;;;;;;7.98;66.32;102537.63;7363351;19;20022;-62
2023/02/08 05:41:41;;;;;;;0.00;0.00;;;;;;;8.06;66.03;102539.53;7360252;19;20035;-62
2023/02/08 05:44:07;;;;;;;0.00;0.00;;;;;;;8.00;66.23;102513.38;7361667;19;20027;-62
2023/02/08 05:46:32;;;;;;;0.00;0.00;;;;;;;8.01;66.28;102509.94;7352714;19;20011;-62
2023/02/08 05:48:57;;;;;;;0.10;0.10;;;;;;;7.99;66.03;102526.38;7361435;19;20057;-62
2023/02/08 05:51:23;;;;;;;0.05;0.05;;;;;;;7.90;66.30;102529.66;7361539;19;20721;-61
2023/02/08 05:53:48;;;;;;;0.10;0.10;;;;;;;7.89;66.46;102530.53;7358035;19;20027;-61
2023/02/08 05:56:14;;;;;;;0.10;0.10;;;;;;;7.46;66.31;102450.91;7362679;19;20074;-62
2023/02/08 05:58:40;;;;;;;0.10;0.10;;;;;;;7.83;65.99;102520.03;7358066;19;20011;-61
2023/02/08 06:01:10;;;;;;;0.10;0.10;;;;;;;7.78;65.91;102521.66;7361607;19;20903;-61
2023/02/08 06:03:36;;;;;;;0.00;0.00;;;;;;;7.60;66.27;102487.50;7362857;19;20014;-62
2023/02/08 06:06:01;;;;;;;0.03;0.03;;;;;;;7.71;66.14;102488.59;7360914;19;20014;-61
2023/02/08 06:08:26;;;;;;;0.00;0.00;;;;;;;7.68;66.20;102509.34;7358393;19;20017;-62
2023/02/08 06:10:52;;;;;;;0.05;0.05;;;;;;;7.59;66.11;102493.56;7360531;19;20025;-62
2023/02/08 06:13:17;;;;;;;0.00;0.00;;;;;;;7.52;66.12;102483.06;7363728;19;20036;-62
2023/02/08 06:15:43;;;;;;;0.00;0.00;;;;;;;7.56;65.99;102509.13;7356313;19;20670;-61
2023/02/08 06:18:09;;;;;;;0.00;0.00;;;;;;;7.46;65.82;102524.53;7356287;19;20026;-60
2023/02/08 06:20:35;;;;;;;0.03;0.03;;;;;;;7.46;66.17;102514.16;7357348;19;20467;-61
2023/02/08 06:23:00;;;;;;;0.10;0.10;;;;;;;7.36;66.80;102519.16;7362384;19;20138;-62
2023/02/08 06:25:26;;;;;;;0.00;0.00;;;;;;;7.38;66.77;102526.09;7361265;19;20451;-61
2023/02/08 06:27:51;;;;;;;0.00;0.00;;;;;;;7.39;66.49;102522.66;7361375;19;20115;-61
2023/02/08 06:30:17;;;;;;;0.08;0.08;;;;;;;7.35;66.60;102523.47;7361437;19;20014;-62
2023/02/08 06:32:42;;;;;;;0.00;0.00;;;;;;;7.24;67.03;102514.56;7361390;19;21066;-62
2023/02/08 06:35:08;;;;;;;0.00;0.00;;;;;;;7.32;66.21;102523.38;7362411;19;20016;-61
2023/02/08 06:37:33;;;;;;;0.03;0.03;;;;;;;7.27;67.12;102512.03;7358836;19;20022;-61
2023/02/08 06:40:00;;;;;;;0.00;0.00;;;;;;;7.18;67.23;102523.09;7361897;19;20010;-61
2023/02/08 06:42:26;;;;;;;0.00;0.00;;;;;;;7.15;67.27;102506.59;7360722;19;20062;-61
2023/02/08 06:44:54;;;;;;;0.00;0.00;;;;;;;7.13;67.01;102510.88;7359472;19;20101;-62
2023/02/08 06:47:19;;;;;;;0.00;0.00;;;;;;;7.11;67.04;102520.38;7359284;19;20006;-61
2023/02/08 06:49:45;;;;;;;0.00;0.00;;;;;;;7.06;67.39;102511.59;7360534;19;20015;-62
2023/02/08 06:52:10;;;;;;;0.00;0.00;;;;;;;7.05;67.02;102521.13;7360888;19;20074;-62
2023/02/08 06:54:36;;;;;;;0.10;0.10;;;;;;;7.14;67.59;102529.06;7357078;19;20006;-61
2023/02/08 06:57:01;;;;;;;0.00;0.00;;;;;;;7.13;66.76;102534.25;7360705;19;20017;-61
2023/02/08 06:59:26;;;;;;;0.10;0.10;;;;;;;7.10;67.52;102529.00;7346094;19;20019;-60
2023/02/08 07:01:52;;;;;;;0.00;0.00;;;;;;;6.92;67.10;102501.78;7357596;19;20037;-61
2023/02/08 07:04:17;;;;;;;0.10;0.10;;;;;;;6.94;67.42;102507.88;7361428;19;20030;-61
2023/02/08 07:06:43;;;;;;;0.00;0.00;;;;;;;7.01;66.98;102509.78;7356382;19;20014;-60
2023/02/08 07:09:08;;;;;;;0.10;0.10;;;;;;;7.00;67.26;102513.22;7361526;19;20034;-62
2023/02/08 07:11:33;;;;;;;0.00;0.00;;;;;;;7.00;67.21;102513.22;7354715;19;20406;-62
2023/02/08 07:13:59;;;;;;;0.00;0.00;;;;;;;6.99;67.27;102511.47;7358620;19;20041;-62
2023/02/08 07:16:24;;;;;;;0.00;0.00;;;;;;;6.95;67.43;102501.88;7351279;19;20018;-61
2023/02/08 07:18:50;;;;;;;0.10;0.10;;;;;;;6.96;66.98;102505.34;7358427;19;20035;-61
2023/02/08 07:21:15;;;;;;;0.10;0.10;;;;;;;6.84;67.57;102485.16;7356167;19;20042;-61
2023/02/08 07:23:41;;;;;;;0.00;0.00;;;;;;;6.57;67.46;102438.72;7358775;19;20917;-61
2023/02/08 07:26:09;;;;;;;0.10;0.10;;;;;;;6.80;67.88;102488.56;7358574;19;20013;-61
2023/02/08 07:28:35;;;;;;;0.10;0.10;;;;;;;6.78;67.62;102474.66;7356453;19;20014;-62
2023/02/08 07:31:12;;;;;;;0.10;0.10;;;;;;;6.87;67.41;102484.34;7360278;19;23152;-61
2023/02/08 07:33:38;;;;;;;0.10;0.10;;;;;;;6.86;67.42;102480.00;7355904;19;20019;-61
2023/02/08 07:36:04;;;;;;;0.00;0.00;;;;;;;6.70;67.62;102439.88;7357857;19;21052;-61
2023/02/08 07:38:32;;;;;;;0.10;0.10;;;;;;;6.84;67.82;102474.75;7354510;19;20339;-60
2023/02/08 07:41:07;;;;;;;0.10;0.10;;;;;;;6.80;67.71;102461.72;7359419;19;20010;-61
2023/02/08 07:43:34;;;;;;;0.10;0.10;;;;;;;6.70;67.20;102443.34;7354696;19;20030;-62
2023/02/08 07:46:10;;;;;;;0.00;0.00;;;;;;;6.84;67.66;102479.97;7336738;19;20030;-62
2023/02/08 07:48:36;;;;;;;0.00;0.00;;;;;;;6.81;68.17;102472.13;7351050;19;20860;-61
2023/02/08 07:51:01;;;;;;;0.00;0.00;;;;;;;6.80;68.12;102467.78;7358664;19;22362;-62
2023/02/08 07:53:27;;;;;;;0.00;0.00;;;;;;;6.81;67.97;102482.50;7358236;19;20041;-61
2023/02/08 07:55:53;;;;;;;0.00;0.00;;;;;;;6.79;67.70;102484.19;7354844;19;21524;-62
2023/02/08 07:58:18;;;;;;;0.10;0.10;;;;;;;6.80;67.82;102472.97;7354547;19;20027;-59
2023/02/08 08:00:44;;;;;;;0.00;0.00;;;;;;;6.73;67.71;102458.09;7346412;19;20947;-62
2023/02/08 08:03:09;;;;;;;0.00;0.00;;;;;;;6.77;68.26;102449.53;7348534;19;20010;-62
2023/02/08 08:05:35;;;;;;;0.00;0.00;;;;;;;6.76;68.18;102455.56;7348175;19;20002;-61
2023/02/08 08:08:00;;;;;;;0.10;0.10;;;;;;;6.73;67.50;102429.53;7347247;19;20027;-61
2023/02/08 08:10:26;;;;;;;0.05;0.05;;;;;;;6.69;68.19;102422.53;7348082;19;20110;-61
2023/02/08 08:12:51;;;;;;;0.10;0.10;;;;;;;6.76;68.18;102446.06;7348936;19;20002;-61
2023/02/08 08:15:17;;;;;;;0.00;0.00;;;;;;;6.70;67.43;102434.69;7358336;19;20010;-62
2023/02/08 08:17:42;;;;;;;0.08;0.08;;;;;;;6.76;67.97;102434.81;7357444;19;20046;-61
2023/02/08 08:20:09;;;;;;;0.00;0.00;;;;;;;6.78;68.39;102433.09;7356370;19;20026;-61
2023/02/08 08:22:35;;;;;;;0.00;0.00;;;;;;;6.78;68.33;102433.09;7358338;19;20011;-61
2023/02/08 08:25:00;;;;;;;0.00;0.00;;;;;;;6.76;68.08;102421.81;7356121;19;20022;-62
2023/02/08 08:27:25;;;;;;;0.00;0.00;;;;;;;6.69;67.97;102404.34;7358094;19;20046;-61
2023/02/08 08:29:51;;;;;;;0.00;0.00;;;;;;;6.78;68.01;102409.72;7354168;19;20062;-61
2023/02/08 08:32:16;;;;;;;0.00;0.00;;;;;;;6.81;67.94;102399.41;7356952;19;20035;-60
2023/02/08 08:34:42;;;;;;;0.00;0.00;;;;;;;6.79;68.03;102393.31;7355418;19;20011;-62
2023/02/08 08:37:08;;;;;;;0.00;0.00;;;;;;;6.67;67.90;102374.91;7357875;19;20047;-59
2023/02/08 08:39:34;;;;;;;0.03;0.03;;;;;;;6.82;67.75;102388.19;7357695;19;20050;-61
2023/02/08 08:42:02;;;;;;;0.00;0.00;;;;;;;6.82;68.15;102377.78;7352858;19;20014;-61
2023/02/08 08:44:28;;;;;;;0.10;0.10;;;;;;;6.47;68.11;102317.38;7355737;19;20030;-61
2023/02/08 08:46:55;;;;;;;0.10;0.10;;;;;;;6.88;68.14;102377.91;7351539;19;20108;-62
2023/02/08 08:49:21;;;;;;;0.00;0.00;;;;;;;6.87;67.83;102376.16;7353589;19;20011;-61
2023/02/08 08:51:47;;;;;;;0.00;0.00;;;;;;;6.91;68.02;102377.97;7359067;19;20681;-61
2023/02/08 08:54:12;;;;;;;0.10;0.10;;;;;;;6.94;67.74;102366.75;7362472;19;20019;-60
2023/02/08 08:56:38;;;;;;;0.00;0.00;;;;;;;6.69;67.75;102318.69;7364080;19;20007;-60
2023/02/08 08:59:03;;;;;;;0.00;0.00;;;;;;;6.83;67.45;102340.59;7363638;19;20094;-60
2023/02/08 09:01:29;;;;;;;0.00;0.00;;;;;;;7.06;67.62;102376.53;7361515;19;20007;-62
2023/02/08 09:03:54;;;;;;;0.10;0.10;;;;;;;7.02;67.40;102353.09;7366466;19;20003;-61
2023/02/08 09:06:19;;;;;;;0.00;0.00;;;;;;;7.17;67.26;102369.81;7357653;19;20007;-60
2023/02/08 09:08:45;;;;;;;0.00;0.00;;;;;;;7.22;67.25;102362.97;7365072;19;20015;-62
2023/02/08 09:11:13;;;;;;;0.00;0.00;;;;;;;7.32;67.25;102364.00;7364376;19;20041;-62
2023/02/08 09:13:39;;;;;;;0.00;0.00;;;;;;;7.33;67.28;102353.63;7364884;19;20527;-61
2023/02/08 09:16:11;;;;;;;0.00;0.00;;;;;;;7.44;67.27;102362.47;7359602;19;20047;-62
2023/02/08 09:18:37;;;;;;;0.00;0.00;;;;;;;7.28;66.95;102311.09;7362708;19;20014;-62
2023/02/08 09:21:20;;;;;;;0.00;0.00;;;;;;;7.62;66.97;102363.63;7351876;19;20030;-60
2023/02/08 09:23:46;;;;;;;0.00;0.00;;;;;;;7.65;66.84;102356.75;7356976;19;20015;-61
2023/02/08 09:26:13;;;;;;;0.10;0.10;;;;;;;7.72;66.85;102352.53;7352983;19;20026;-61
2023/02/08 09:28:39;;;;;;;0.05;0.05;;;;;;;7.72;66.80;102340.41;7356448;19;20014;-61
2023/02/08 09:31:17;;;;;;;0.00;0.00;;;;;;;7.87;67.00;102349.28;7359562;19;20025;-61
2023/02/08 09:33:42;;;;;;;0.00;0.00;;;;;;;7.98;66.56;102358.13;7357466;19;20725;-62
2023/02/08 09:36:08;;;;;;;0.00;0.00;;;;;;;8.06;66.61;102341.78;7356992;19;20011;-61
2023/02/08 09:38:34;;;;;;;0.00;0.00;;;;;;;8.30;66.73;102355.97;7356729;19;20014;-61
2023/02/08 09:41:37;;;;;;;0.10;0.10;;;;;;;8.47;66.51;102349.28;7363095;19;21801;-61
2023/02/08 09:44:42;;;;;;;0.10;0.10;;;;;;;8.57;66.39;102343.34;7258850;19;2004295;-61
2023/02/08 09:47:29;;;;;;;0.10;0.10;;;;;;;8.75;66.46;102336.56;7247287;19;2004052;-60
2023/02/08 09:49:58;;;;;;;0.10;0.10;;;;;;;8.83;66.50;102337.56;7359986;19;20038;-61
2023/02/08 09:52:32;;;;;;;0.00;0.00;;;;;;;8.93;65.80;102323.75;7350109;19;20022;-61
2023/02/08 09:55:01;;;;;;;0.10;0.10;;;;;;;9.01;65.61;102316.88;7356890;19;20033;-61
2023/02/08 09:57:32;;;;;;;0.10;0.10;;;;;;;9.12;66.01;102313.50;7358282;19;20018;-62
2023/02/08 10:00:06;;;;;;;0.05;0.05;;;;;;;9.21;65.28;102308.38;7357563;19;20022;-61
2023/02/08 10:02:33;;;;;;;0.10;0.10;;;;;;;9.29;65.14;102311.94;7357507;19;20014;-61
2023/02/08 10:05:02;;;;;;;0.00;0.00;;;;;;;9.37;65.82;102297.19;7341869;19;20017;-62
2023/02/08 10:07:29;;;;;;;0.00;0.00;;;;;;;9.52;65.79;102302.53;7357398;19;20011;-62
2023/02/08 10:09:59;;;;;;;0.10;0.10;;;;;;;9.57;65.04;102287.78;7360156;19;20037;-62
2023/02/08 10:12:41;;;;;;;0.10;0.10;;;;;;;9.70;64.90;102298.31;7360735;19;20019;-61
2023/02/08 10:15:06;;;;;;;0.10;0.10;;;;;;;9.77;64.73;102315.75;7361661;19;20014;-62
2023/02/08 10:18:10;;;;;;;0.00;0.00;;;;;;;9.88;65.06;102298.41;7362184;19;23112;-62
2023/02/08 10:20:51;;;;;;;0.00;0.00;;;;;;;9.92;64.51;102292.34;7254628;19;2004024;-62
2023/02/08 10:23:43;;;;;;;0.00;0.00;;;;;;;9.97;64.35;102303.69;7361793;19;20013;-61
2023/02/08 10:26:32;;;;;;;0.00;0.00;;;;;;;10.02;64.29;102285.44;7256292;19;2004791;-62
2023/02/08 10:29:16;;;;;;;0.10;0.10;;;;;;;10.06;64.31;102288.09;7363574;19;20030;-62
2023/02/08 10:32:17;;;;;;;0.08;0.08;;;;;;;10.09;63.83;102279.41;7360997;19;20018;-62
2023/02/08 10:34:48;;;;;;;0.00;0.00;;;;;;;10.13;63.71;102288.97;7254042;19;2004321;-62
2023/02/08 10:37:28;;;;;;;0.00;0.00;;;;;;;10.08;63.40;102265.47;7362317;19;20048;-61
2023/02/08 10:40:01;;;;;;;0.10;0.10;;;;;;;10.07;63.13;102253.28;7359976;19;21369;-62
2023/02/08 10:42:28;;;;;;;0.00;0.00;;;;;;;10.24;63.43;102281.22;7362663;19;20010;-62
2023/02/08 10:44:59;;;;;;;0.00;0.00;;;;;;;10.25;63.06;102277.78;7358005;19;20030;-62
2023/02/08 10:47:38;;;;;;;0.03;0.03;;;;;;;10.32;63.01;102280.41;7357159;19;20072;-60
2023/02/08 10:50:29;;;;;;;0.10;0.10;;;;;;;10.36;62.67;102286.50;7358333;19;20809;-62
2023/02/08 10:52:54;;;;;;;0.00;0.00;;;;;;;10.35;63.14;102274.31;7362824;19;20011;-61
2023/02/08 10:55:20;;;;;;;0.00;0.00;;;;;;;10.38;62.56;102269.97;7356175;19;20023;-62
2023/02/08 10:57:48;;;;;;;0.10;0.10;;;;;;;10.53;61.96;102276.97;7361729;19;20010;-62
2023/02/08 11:00:30;;;;;;;0.00;0.00;;;;;;;10.63;62.67;102289.19;7359598;19;20763;-61
2023/02/08 11:03:02;;;;;;;0.00;0.00;;;;;;;10.68;61.47;102272.66;7360682;19;20023;-62
2023/02/08 11:05:35;;;;;;;0.10;0.10;;;;;;;10.67;62.10;102256.13;7358050;19;20443;-62
2023/02/08 11:08:05;;;;;;;0.00;0.00;;;;;;;10.78;61.47;102248.28;7361155;19;20479;-62
2023/02/08 11:10:31;;;;;;;0.10;0.10;;;;;;;10.74;61.69;102236.97;7355579;19;20014;-62
2023/02/08 11:13:02;;;;;;;0.10;0.10;;;;;;;10.87;61.68;102238.72;7354812;19;20010;-62
2023/02/08 11:15:46;;;;;;;0.00;0.00;;;;;;;11.01;62.12;102238.75;7358181;19;20010;-60
2023/02/08 11:18:21;;;;;;;0.00;0.00;;;;;;;11.06;61.49;102231.75;7357702;19;20018;-61
2023/02/08 11:20:49;;;;;;;0.00;0.00;;;;;;;11.11;61.15;102222.19;7356821;19;20074;-61
2023/02/08 11:23:25;;;;;;;0.00;0.00;;;;;;;11.18;61.25;102221.28;7359852;19;20022;-62
2023/02/08 11:25:52;;;;;;;0.00;0.00;;;;;;;11.18;60.38;102213.44;7349371;19;20089;-61
2023/02/08 11:28:29;;;;;;;0.10;0.10;;;;;;;11.26;61.06;102202.13;7351581;19;20030;-62
2023/02/08 11:30:58;;;;;;;0.00;0.00;;;;;;;11.30;60.00;102201.22;7355461;19;20014;-62
2023/02/08 11:33:26;;;;;;;0.10;0.10;;;;;;;11.34;59.39;102203.81;7357116;19;20106;-62
2023/02/08 11:36:14;;;;;;;0.00;0.00;;;;;;;11.44;60.25;102195.09;7360959;19;20780;-62
2023/02/08 11:38:41;;;;;;;0.00;0.00;;;;;;;11.50;59.74;102188.97;7251440;19;2004256;-62
2023/02/08 11:41:14;;;;;;;;;;;;;;;11.63;59.84;102189.81;7351863;19;20017;-62
2023/02/08 11:43:40;;;;;;;0.00;0.00;;;;;;;11.54;59.05;102184.59;7357006;19;20000;-62
2023/02/08 11:46:06;;;;;;;0.08;0.08;;;;;;;11.55;58.55;102168.91;7355451;19;20097;-62